sensor_id;sensor_type;location;lat;lon;timestamp;P1;durP1;ratioP1;P2;durP2;ratioP2
317;SDS011;146;53.448;10.228;2023-09-19T00:01:39;1.97;;;1.87;;
317;SDS011;146;53.448;10.228;2023-09-19T00:04:07;2.17;;;1.97;;
317;SDS011;146;53.448;10.228;2023-09-19T00:06:34;2.10;;;1.90;;
317;SDS011;146;53.448;10.228;2023-09-19T00:09:02;3.10;;;1.90;;
317;SDS011;146;53.448;10.228;2023-09-19T00:11:29;2.73;;;1.97;;
317;SDS011;146;53.448;10.228;2023-09-19T00:13:57;6.17;;;2.87;;
317;SDS011;146;53.448;10.228;2023-09-19T00:16:24;4.17;;;2.30;;
317;SDS011;146;53.448;10.228;2023-09-19T00:18:54;2.47;;;2.30;;
317;SDS011;146;53.448;10.228;2023-09-19T00:21:22;2.27;;;2.10;;
317;SDS011;146;53.448;10.228;2023-09-19T00:23:49;2.20;;;2.10;;
317;SDS011;146;53.448;10.228;2023-09-19T00:26:17;2.10;;;2.00;;
317;SDS011;146;53.448;10.228;2023-09-19T00:28:46;1.80;;;1.70;;
317;SDS011;146;53.448;10.228;2023-09-19T00:31:13;4.10;;;2.70;;
317;SDS011;146;53.448;10.228;2023-09-19T00:33:39;2.87;;;2.10;;
317;SDS011;146;53.448;10.228;2023-09-19T00:36:07;2.20;;;2.10;;
317;SDS011;146;53.448;10.228;2023-09-19T00:38:38;2.50;;;2.30;;
317;SDS011;146;53.448;10.228;2023-09-19T00:41:05;3.70;;;3.40;;
317;SDS011;146;53.448;10.228;2023-09-19T00:43:32;2.13;;;2.03;;
317;SDS011;146;53.448;10.228;2023-09-19T00:46:01;4.40;;;2.53;;
317;SDS011;146;53.448;10.228;2023-09-19T00:48:29;2.60;;;2.40;;
317;SDS011;146;53.448;10.228;2023-09-19T00:50:57;7.40;;;2.40;;
317;SDS011;146;53.448;10.228;2023-09-19T00:53:28;2.97;;;2.67;;
317;SDS011;146;53.448;10.228;2023-09-19T00:56:00;3.40;;;3.10;;
317;SDS011;146;53.448;10.228;2023-09-19T00:58:29;4.53;;;2.93;;
317;SDS011;146;53.448;10.228;2023-09-19T01:00:58;3.47;;;3.17;;
317;SDS011;146;53.448;10.228;2023-09-19T01:03:25;3.20;;;3.00;;
317;SDS011;146;53.448;10.228;2023-09-19T01:05:53;3.47;;;3.17;;
317;SDS011;146;53.448;10.228;2023-09-19T01:08:20;3.77;;;2.90;;
317;SDS011;146;53.448;10.228;2023-09-19T01:10:51;3.37;;;2.83;;
317;SDS011;146;53.448;10.228;2023-09-19T01:13:24;3.43;;;3.23;;
317;SDS011;146;53.448;10.228;2023-09-19T01:15:59;4.73;;;3.30;;
317;SDS011;146;53.448;10.228;2023-09-19T01:18:39;5.40;;;3.30;;
317;SDS011;146;53.448;10.228;2023-09-19T01:21:15;3.67;;;3.37;;
317;SDS011;146;53.448;10.228;2023-09-19T01:23:56;4.20;;;3.47;;
317;SDS011;146;53.448;10.228;2023-09-19T01:26:56;4.10;;;3.70;;
317;SDS011;146;53.448;10.228;2023-09-19T01:29:45;3.60;;;3.30;;
317;SDS011;146;53.448;10.228;2023-09-19T01:32:15;3.63;;;3.33;;
317;SDS011;146;53.448;10.228;2023-09-19T01:34:46;4.27;;;3.93;;
317;SDS011;146;53.448;10.228;2023-09-19T01:37:15;4.40;;;4.00;;
317;SDS011;146;53.448;10.228;2023-09-19T01:39:45;3.60;;;3.40;;
317;SDS011;146;53.448;10.228;2023-09-19T01:42:17;4.93;;;4.43;;
317;SDS011;146;53.448;10.228;2023-09-19T01:44:51;5.20;;;4.77;;
317;SDS011;146;53.448;10.228;2023-09-19T01:47:28;5.93;;;4.33;;
317;SDS011;146;53.448;10.228;2023-09-19T01:50:02;4.60;;;4.20;;
317;SDS011;146;53.448;10.228;2023-09-19T01:52:36;10.03;;;5.70;;
317;SDS011;146;53.448;10.228;2023-09-19T01:55:11;4.40;;;4.03;;
317;SDS011;146;53.448;10.228;2023-09-19T01:57:43;4.97;;;4.57;;
317;SDS011;146;53.448;10.228;2023-09-19T02:00:18;5.73;;;4.10;;
317;SDS011;146;53.448;10.228;2023-09-19T02:02:50;3.57;;;3.27;;
317;SDS011;146;53.448;10.228;2023-09-19T02:05:24;3.70;;;3.40;;
317;SDS011;146;53.448;10.228;2023-09-19T02:07:52;4.53;;;4.23;;
317;SDS011;146;53.448;10.228;2023-09-19T02:10:20;4.47;;;4.17;;
317;SDS011;146;53.448;10.228;2023-09-19T02:12:48;4.47;;;4.07;;
317;SDS011;146;53.448;10.228;2023-09-19T02:15:15;3.90;;;3.40;;
317;SDS011;146;53.448;10.228;2023-09-19T02:17:42;4.57;;;4.13;;
317;SDS011;146;53.448;10.228;2023-09-19T02:20:12;7.00;;;4.00;;
317;SDS011;146;53.448;10.228;2023-09-19T02:22:40;5.00;;;4.60;;
317;SDS011;146;53.448;10.228;2023-09-19T02:25:11;4.63;;;4.23;;
317;SDS011;146;53.448;10.228;2023-09-19T02:27:40;4.63;;;3.97;;
317;SDS011;146;53.448;10.228;2023-09-19T02:30:08;4.40;;;4.00;;
317;SDS011;146;53.448;10.228;2023-09-19T02:32:35;5.63;;;4.33;;
317;SDS011;146;53.448;10.228;2023-09-19T02:35:04;5.37;;;4.27;;
317;SDS011;146;53.448;10.228;2023-09-19T02:37:34;3.90;;;3.60;;
317;SDS011;146;53.448;10.228;2023-09-19T02:40:01;6.10;;;4.80;;
317;SDS011;146;53.448;10.228;2023-09-19T02:42:44;6.33;;;4.00;;
317;SDS011;146;53.448;10.228;2023-09-19T02:45:14;4.07;;;3.67;;
317;SDS011;146;53.448;10.228;2023-09-19T02:47:42;4.37;;;4.07;;
317;SDS011;146;53.448;10.228;2023-09-19T02:50:10;4.93;;;4.30;;
317;SDS011;146;53.448;10.228;2023-09-19T02:52:41;4.30;;;4.00;;
317;SDS011;146;53.448;10.228;2023-09-19T02:55:09;6.40;;;4.47;;
317;SDS011;146;53.448;10.228;2023-09-19T02:57:36;4.93;;;3.93;;
317;SDS011;146;53.448;10.228;2023-09-19T03:00:06;4.13;;;3.83;;
317;SDS011;146;53.448;10.228;2023-09-19T03:02:35;4.60;;;3.47;;
317;SDS011;146;53.448;10.228;2023-09-19T03:05:06;6.80;;;4.50;;
317;SDS011;146;53.448;10.228;2023-09-19T03:07:36;5.07;;;4.43;;
317;SDS011;146;53.448;10.228;2023-09-19T03:10:05;4.30;;;3.90;;
317;SDS011;146;53.448;10.228;2023-09-19T03:12:33;4.00;;;3.70;;
317;SDS011;146;53.448;10.228;2023-09-19T03:15:00;4.93;;;3.63;;
317;SDS011;146;53.448;10.228;2023-09-19T03:17:35;4.10;;;3.73;;
317;SDS011;146;53.448;10.228;2023-09-19T03:20:03;3.60;;;3.30;;
317;SDS011;146;53.448;10.228;2023-09-19T03:22:33;6.43;;;3.50;;
317;SDS011;146;53.448;10.228;2023-09-19T03:25:00;3.63;;;3.23;;
317;SDS011;146;53.448;10.228;2023-09-19T03:27:30;7.10;;;3.57;;
317;SDS011;146;53.448;10.228;2023-09-19T03:29:57;5.50;;;3.07;;
317;SDS011;146;53.448;10.228;2023-09-19T03:32:24;4.60;;;4.20;;
317;SDS011;146;53.448;10.228;2023-09-19T03:34:51;3.93;;;3.53;;
317;SDS011;146;53.448;10.228;2023-09-19T03:37:18;3.50;;;3.20;;
317;SDS011;146;53.448;10.228;2023-09-19T03:39:45;2.80;;;2.60;;
317;SDS011;146;53.448;10.228;2023-09-19T03:42:12;5.20;;;3.37;;
317;SDS011;146;53.448;10.228;2023-09-19T03:44:43;3.07;;;2.83;;
317;SDS011;146;53.448;10.228;2023-09-19T03:47:10;5.40;;;3.20;;
317;SDS011;146;53.448;10.228;2023-09-19T03:49:41;3.27;;;2.97;;
317;SDS011;146;53.448;10.228;2023-09-19T03:52:07;2.90;;;2.57;;
317;SDS011;146;53.448;10.228;2023-09-19T03:54:34;3.53;;;2.40;;
317;SDS011;146;53.448;10.228;2023-09-19T03:57:01;3.03;;;2.70;;
317;SDS011;146;53.448;10.228;2023-09-19T03:59:29;2.40;;;2.20;;
317;SDS011;146;53.448;10.228;2023-09-19T04:01:59;2.50;;;2.30;;
317;SDS011;146;53.448;10.228;2023-09-19T04:04:27;2.43;;;1.97;;
317;SDS011;146;53.448;10.228;2023-09-19T04:06:57;2.10;;;1.90;;
317;SDS011;146;53.448;10.228;2023-09-19T04:09:26;2.37;;;2.17;;
317;SDS011;146;53.448;10.228;2023-09-19T04:11:53;2.43;;;1.60;;
317;SDS011;146;53.448;10.228;2023-09-19T04:14:22;2.20;;;2.10;;
317;SDS011;146;53.448;10.228;2023-09-19T04:16:49;2.23;;;1.37;;
317;SDS011;146;53.448;10.228;2023-09-19T04:19:17;1.87;;;1.77;;
317;SDS011;146;53.448;10.228;2023-09-19T04:21:44;3.73;;;1.80;;
317;SDS011;146;53.448;10.228;2023-09-19T04:24:11;4.37;;;1.90;;
317;SDS011;146;53.448;10.228;2023-09-19T04:26:39;2.63;;;1.53;;
317;SDS011;146;53.448;10.228;2023-09-19T04:29:06;1.93;;;1.50;;
317;SDS011;146;53.448;10.228;2023-09-19T04:31:37;1.60;;;1.50;;
317;SDS011;146;53.448;10.228;2023-09-19T04:34:08;2.07;;;1.50;;
317;SDS011;146;53.448;10.228;2023-09-19T04:36:37;1.60;;;1.30;;
317;SDS011;146;53.448;10.228;2023-09-19T04:39:06;1.87;;;1.20;;
317;SDS011;146;53.448;10.228;2023-09-19T04:41:35;2.10;;;1.43;;
317;SDS011;146;53.448;10.228;2023-09-19T04:44:04;6.80;;;2.00;;
317;SDS011;146;53.448;10.228;2023-09-19T04:46:33;1.60;;;1.50;;
317;SDS011;146;53.448;10.228;2023-09-19T04:49:00;2.53;;;1.33;;
317;SDS011;146;53.448;10.228;2023-09-19T04:51:27;3.77;;;1.83;;
317;SDS011;146;53.448;10.228;2023-09-19T04:54:00;1.33;;;1.23;;
317;SDS011;146;53.448;10.228;2023-09-19T04:56:28;2.83;;;1.60;;
317;SDS011;146;53.448;10.228;2023-09-19T04:58:55;3.13;;;1.60;;
317;SDS011;146;53.448;10.228;2023-09-19T05:01:26;3.83;;;1.73;;
317;SDS011;146;53.448;10.228;2023-09-19T05:03:53;2.50;;;1.90;;
317;SDS011;146;53.448;10.228;2023-09-19T05:06:20;2.70;;;1.57;;
317;SDS011;146;53.448;10.228;2023-09-19T05:08:47;2.53;;;1.40;;
317;SDS011;146;53.448;10.228;2023-09-19T05:11:18;4.37;;;1.33;;
317;SDS011;146;53.448;10.228;2023-09-19T05:13:47;4.53;;;2.13;;
317;SDS011;146;53.448;10.228;2023-09-19T05:16:15;9.00;;;2.40;;
317;SDS011;146;53.448;10.228;2023-09-19T05:18:43;2.90;;;1.50;;
317;SDS011;146;53.448;10.228;2023-09-19T05:21:10;2.30;;;1.67;;
317;SDS011;146;53.448;10.228;2023-09-19T05:23:37;3.23;;;1.47;;
317;SDS011;146;53.448;10.228;2023-09-19T05:26:04;4.73;;;1.80;;
317;SDS011;146;53.448;10.228;2023-09-19T05:28:32;3.40;;;1.60;;
317;SDS011;146;53.448;10.228;2023-09-19T05:31:03;1.40;;;1.30;;
317;SDS011;146;53.448;10.228;2023-09-19T05:33:30;5.10;;;2.33;;
317;SDS011;146;53.448;10.228;2023-09-19T05:35:58;2.53;;;1.70;;
317;SDS011;146;53.448;10.228;2023-09-19T05:38:25;2.73;;;1.90;;
317;SDS011;146;53.448;10.228;2023-09-19T05:40:54;4.57;;;2.40;;
317;SDS011;146;53.448;10.228;2023-09-19T05:43:20;1.77;;;1.63;;
317;SDS011;146;53.448;10.228;2023-09-19T05:45:49;2.27;;;1.83;;
317;SDS011;146;53.448;10.228;2023-09-19T05:48:17;4.67;;;2.00;;
317;SDS011;146;53.448;10.228;2023-09-19T05:50:46;3.30;;;2.00;;
317;SDS011;146;53.448;10.228;2023-09-19T05:53:13;2.37;;;1.77;;
317;SDS011;146;53.448;10.228;2023-09-19T05:55:41;4.20;;;1.93;;
317;SDS011;146;53.448;10.228;2023-09-19T05:58:08;3.20;;;1.73;;
317;SDS011;146;53.448;10.228;2023-09-19T06:00:39;2.70;;;1.90;;
317;SDS011;146;53.448;10.228;2023-09-19T06:03:11;5.93;;;2.47;;
317;SDS011;146;53.448;10.228;2023-09-19T06:05:39;2.47;;;2.27;;
317;SDS011;146;53.448;10.228;2023-09-19T06:08:06;3.27;;;2.27;;
317;SDS011;146;53.448;10.228;2023-09-19T06:10:34;3.57;;;2.70;;
317;SDS011;146;53.448;10.228;2023-09-19T06:13:04;3.00;;;2.13;;
317;SDS011;146;53.448;10.228;2023-09-19T06:15:35;3.13;;;1.70;;
317;SDS011;146;53.448;10.228;2023-09-19T06:18:02;3.10;;;2.07;;
317;SDS011;146;53.448;10.228;2023-09-19T06:20:31;3.87;;;2.00;;
317;SDS011;146;53.448;10.228;2023-09-19T06:22:58;3.30;;;2.30;;
317;SDS011;146;53.448;10.228;2023-09-19T06:25:27;3.93;;;2.70;;
317;SDS011;146;53.448;10.228;2023-09-19T06:27:54;5.10;;;2.40;;
317;SDS011;146;53.448;10.228;2023-09-19T06:30:24;2.67;;;2.00;;
317;SDS011;146;53.448;10.228;2023-09-19T06:32:55;4.33;;;2.80;;
317;SDS011;146;53.448;10.228;2023-09-19T06:35:22;7.43;;;2.57;;
317;SDS011;146;53.448;10.228;2023-09-19T06:37:55;2.50;;;2.30;;
317;SDS011;146;53.448;10.228;2023-09-19T06:40:22;3.03;;;2.47;;
317;SDS011;146;53.448;10.228;2023-09-19T06:42:50;4.93;;;2.30;;
317;SDS011;146;53.448;10.228;2023-09-19T06:45:19;3.60;;;2.10;;
317;SDS011;146;53.448;10.228;2023-09-19T06:47:47;3.10;;;2.30;;
317;SDS011;146;53.448;10.228;2023-09-19T06:50:15;4.60;;;2.87;;
317;SDS011;146;53.448;10.228;2023-09-19T06:52:44;6.70;;;2.23;;
317;SDS011;146;53.448;10.228;2023-09-19T06:55:14;4.10;;;2.53;;
317;SDS011;146;53.448;10.228;2023-09-19T06:57:41;3.97;;;2.80;;
317;SDS011;146;53.448;10.228;2023-09-19T07:00:08;6.13;;;2.80;;
317;SDS011;146;53.448;10.228;2023-09-19T07:02:40;2.93;;;2.43;;
317;SDS011;146;53.448;10.228;2023-09-19T07:05:07;4.80;;;2.97;;
317;SDS011;146;53.448;10.228;2023-09-19T07:07:34;6.57;;;3.07;;
317;SDS011;146;53.448;10.228;2023-09-19T07:10:01;4.03;;;2.90;;
317;SDS011;146;53.448;10.228;2023-09-19T07:12:39;4.20;;;2.87;;
317;SDS011;146;53.448;10.228;2023-09-19T07:15:09;2.77;;;2.20;;
317;SDS011;146;53.448;10.228;2023-09-19T07:17:36;4.43;;;2.40;;
317;SDS011;146;53.448;10.228;2023-09-19T07:20:13;4.50;;;2.87;;
317;SDS011;146;53.448;10.228;2023-09-19T07:22:41;4.50;;;2.70;;
317;SDS011;146;53.448;10.228;2023-09-19T07:25:08;4.23;;;3.20;;
317;SDS011;146;53.448;10.228;2023-09-19T07:27:35;4.37;;;2.77;;
317;SDS011;146;53.448;10.228;2023-09-19T07:30:03;5.20;;;2.97;;
317;SDS011;146;53.448;10.228;2023-09-19T07:32:32;5.43;;;2.70;;
317;SDS011;146;53.448;10.228;2023-09-19T07:35:00;5.80;;;3.07;;
317;SDS011;146;53.448;10.228;2023-09-19T07:37:27;4.33;;;3.00;;
317;SDS011;146;53.448;10.228;2023-09-19T07:39:56;3.10;;;2.80;;
317;SDS011;146;53.448;10.228;2023-09-19T07:42:23;5.10;;;2.73;;
317;SDS011;146;53.448;10.228;2023-09-19T07:44:51;6.40;;;3.40;;
317;SDS011;146;53.448;10.228;2023-09-19T07:47:20;7.40;;;3.60;;
317;SDS011;146;53.448;10.228;2023-09-19T07:49:47;7.53;;;3.53;;
317;SDS011;146;53.448;10.228;2023-09-19T07:52:14;6.37;;;2.90;;
317;SDS011;146;53.448;10.228;2023-09-19T07:54:41;4.23;;;3.33;;
317;SDS011;146;53.448;10.228;2023-09-19T07:57:09;6.03;;;3.07;;
317;SDS011;146;53.448;10.228;2023-09-19T07:59:36;4.10;;;3.30;;
317;SDS011;146;53.448;10.228;2023-09-19T08:02:04;5.17;;;3.27;;
317;SDS011;146;53.448;10.228;2023-09-19T08:04:35;5.57;;;3.10;;
317;SDS011;146;53.448;10.228;2023-09-19T08:07:02;5.37;;;3.00;;
317;SDS011;146;53.448;10.228;2023-09-19T08:09:29;6.97;;;3.97;;
317;SDS011;146;53.448;10.228;2023-09-19T08:11:59;5.20;;;3.20;;
317;SDS011;146;53.448;10.228;2023-09-19T08:14:29;6.00;;;3.30;;
317;SDS011;146;53.448;10.228;2023-09-19T08:16:56;6.73;;;3.10;;
317;SDS011;146;53.448;10.228;2023-09-19T08:19:24;10.13;;;3.90;;
317;SDS011;146;53.448;10.228;2023-09-19T08:21:55;3.97;;;3.23;;
317;SDS011;146;53.448;10.228;2023-09-19T08:24:23;4.20;;;2.50;;
317;SDS011;146;53.448;10.228;2023-09-19T08:26:52;8.13;;;2.97;;
317;SDS011;146;53.448;10.228;2023-09-19T08:29:20;4.50;;;3.20;;
317;SDS011;146;53.448;10.228;2023-09-19T08:31:52;7.17;;;2.90;;
317;SDS011;146;53.448;10.228;2023-09-19T08:34:21;6.17;;;3.40;;
317;SDS011;146;53.448;10.228;2023-09-19T08:36:48;5.80;;;3.03;;
317;SDS011;146;53.448;10.228;2023-09-19T08:39:18;4.37;;;2.83;;
317;SDS011;146;53.448;10.228;2023-09-19T08:41:45;7.23;;;3.20;;
317;SDS011;146;53.448;10.228;2023-09-19T08:44:11;8.17;;;3.00;;
317;SDS011;146;53.448;10.228;2023-09-19T08:46:45;4.87;;;3.23;;
317;SDS011;146;53.448;10.228;2023-09-19T08:49:16;7.60;;;2.80;;
317;SDS011;146;53.448;10.228;2023-09-19T08:51:59;3.53;;;2.70;;
317;SDS011;146;53.448;10.228;2023-09-19T08:54:37;4.87;;;2.90;;
317;SDS011;146;53.448;10.228;2023-09-19T08:57:07;3.70;;;2.60;;
317;SDS011;146;53.448;10.228;2023-09-19T08:59:36;5.33;;;3.00;;
317;SDS011;146;53.448;10.228;2023-09-19T09:02:09;3.00;;;2.57;;
317;SDS011;146;53.448;10.228;2023-09-19T09:04:38;3.97;;;2.50;;
317;SDS011;146;53.448;10.228;2023-09-19T09:07:09;7.93;;;2.70;;
317;SDS011;146;53.448;10.228;2023-09-19T09:09:39;4.87;;;2.10;;
317;SDS011;146;53.448;10.228;2023-09-19T09:12:08;5.80;;;3.07;;
317;SDS011;146;53.448;10.228;2023-09-19T09:14:37;6.97;;;2.83;;
317;SDS011;146;53.448;10.228;2023-09-19T09:17:04;5.43;;;2.30;;
317;SDS011;146;53.448;10.228;2023-09-19T09:19:32;4.60;;;2.30;;
317;SDS011;146;53.448;10.228;2023-09-19T09:22:05;7.10;;;2.30;;
317;SDS011;146;53.448;10.228;2023-09-19T09:24:33;5.10;;;2.47;;
317;SDS011;146;53.448;10.228;2023-09-19T09:27:04;8.30;;;3.07;;
317;SDS011;146;53.448;10.228;2023-09-19T09:29:40;2.87;;;1.80;;
317;SDS011;146;53.448;10.228;2023-09-19T09:32:22;4.43;;;2.07;;
317;SDS011;146;53.448;10.228;2023-09-19T09:34:51;6.10;;;2.77;;
317;SDS011;146;53.448;10.228;2023-09-19T09:37:19;2.37;;;1.70;;
317;SDS011;146;53.448;10.228;2023-09-19T09:39:51;4.80;;;3.07;;
317;SDS011;146;53.448;10.228;2023-09-19T09:42:33;3.90;;;1.83;;
317;SDS011;146;53.448;10.228;2023-09-19T09:47:54;4.20;;;1.97;;
317;SDS011;146;53.448;10.228;2023-09-19T09:50:24;4.67;;;2.00;;
317;SDS011;146;53.448;10.228;2023-09-19T09:53:21;6.33;;;2.53;;
317;SDS011;146;53.448;10.228;2023-09-19T09:55:57;3.03;;;1.80;;
317;SDS011;146;53.448;10.228;2023-09-19T09:58:32;3.53;;;2.13;;
317;SDS011;146;53.448;10.228;2023-09-19T10:01:01;5.50;;;1.90;;
317;SDS011;146;53.448;10.228;2023-09-19T10:03:39;3.57;;;1.80;;
317;SDS011;146;53.448;10.228;2023-09-19T10:06:09;2.30;;;1.60;;
317;SDS011;146;53.448;10.228;2023-09-19T10:09:02;3.30;;;1.70;;
317;SDS011;146;53.448;10.228;2023-09-19T10:11:38;2.60;;;2.07;;
317;SDS011;146;53.448;10.228;2023-09-19T10:14:09;4.30;;;1.83;;
317;SDS011;146;53.448;10.228;2023-09-19T10:16:40;1.67;;;1.53;;
317;SDS011;146;53.448;10.228;2023-09-19T10:19:12;3.23;;;1.47;;
317;SDS011;146;53.448;10.228;2023-09-19T10:21:42;4.43;;;2.33;;
317;SDS011;146;53.448;10.228;2023-09-19T10:24:11;4.47;;;2.10;;
317;SDS011;146;53.448;10.228;2023-09-19T10:26:41;2.80;;;1.70;;
317;SDS011;146;53.448;10.228;2023-09-19T10:32:01;5.30;;;4.00;;
317;SDS011;146;53.448;10.228;2023-09-19T10:34:31;6.53;;;3.50;;
317;SDS011;146;53.448;10.228;2023-09-19T10:37:02;3.53;;;2.53;;
317;SDS011;146;53.448;10.228;2023-09-19T10:39:31;3.30;;;1.70;;
317;SDS011;146;53.448;10.228;2023-09-19T10:42:01;7.60;;;2.13;;
317;SDS011;146;53.448;10.228;2023-09-19T10:44:32;4.37;;;1.50;;
317;SDS011;146;53.448;10.228;2023-09-19T10:47:00;1.53;;;1.37;;
317;SDS011;146;53.448;10.228;2023-09-19T10:49:32;5.37;;;2.03;;
317;SDS011;146;53.448;10.228;2023-09-19T10:51:59;4.90;;;1.70;;
317;SDS011;146;53.448;10.228;2023-09-19T10:54:31;2.00;;;1.30;;
317;SDS011;146;53.448;10.228;2023-09-19T10:57:02;3.37;;;1.97;;
317;SDS011;146;53.448;10.228;2023-09-19T10:59:30;4.80;;;2.60;;
317;SDS011;146;53.448;10.228;2023-09-19T11:02:14;2.77;;;2.20;;
317;SDS011;146;53.448;10.228;2023-09-19T11:04:43;3.70;;;1.90;;
317;SDS011;146;53.448;10.228;2023-09-19T11:07:13;5.50;;;2.07;;
317;SDS011;146;53.448;10.228;2023-09-19T11:09:42;3.30;;;1.77;;
317;SDS011;146;53.448;10.228;2023-09-19T11:18:53;5.00;;;2.10;;
317;SDS011;146;53.448;10.228;2023-09-19T11:21:42;2.60;;;1.50;;
317;SDS011;146;53.448;10.228;2023-09-19T11:24:31;7.50;;;2.40;;
317;SDS011;146;53.448;10.228;2023-09-19T11:27:11;2.43;;;1.60;;
317;SDS011;146;53.448;10.228;2023-09-19T11:29:48;3.10;;;2.00;;
317;SDS011;146;53.448;10.228;2023-09-19T11:33:16;4.87;;;1.80;;
317;SDS011;146;53.448;10.228;2023-09-19T11:36:05;3.03;;;1.50;;
317;SDS011;146;53.448;10.228;2023-09-19T11:41:39;3.03;;;1.53;;
317;SDS011;146;53.448;10.228;2023-09-19T11:47:04;3.13;;;1.70;;
317;SDS011;146;53.448;10.228;2023-09-19T11:49:32;2.97;;;2.30;;
317;SDS011;146;53.448;10.228;2023-09-19T11:52:01;6.17;;;2.27;;
317;SDS011;146;53.448;10.228;2023-09-19T11:54:31;3.03;;;2.07;;
317;SDS011;146;53.448;10.228;2023-09-19T11:56:58;5.13;;;1.90;;
317;SDS011;146;53.448;10.228;2023-09-19T11:59:27;6.30;;;1.93;;
317;SDS011;146;53.448;10.228;2023-09-19T12:01:55;4.37;;;2.00;;
317;SDS011;146;53.448;10.228;2023-09-19T12:04:33;3.33;;;1.83;;
317;SDS011;146;53.448;10.228;2023-09-19T12:07:04;8.00;;;2.07;;
317;SDS011;146;53.448;10.228;2023-09-19T12:09:36;4.40;;;2.00;;
317;SDS011;146;53.448;10.228;2023-09-19T12:12:05;4.50;;;2.07;;
317;SDS011;146;53.448;10.228;2023-09-19T12:14:32;2.80;;;2.17;;
317;SDS011;146;53.448;10.228;2023-09-19T12:17:00;4.97;;;2.77;;
317;SDS011;146;53.448;10.228;2023-09-19T12:19:28;3.60;;;2.10;;
317;SDS011;146;53.448;10.228;2023-09-19T12:21:56;3.23;;;2.03;;
317;SDS011;146;53.448;10.228;2023-09-19T12:24:26;2.93;;;2.03;;
317;SDS011;146;53.448;10.228;2023-09-19T12:26:55;5.13;;;2.60;;
317;SDS011;146;53.448;10.228;2023-09-19T12:29:27;3.80;;;2.20;;
317;SDS011;146;53.448;10.228;2023-09-19T12:31:55;3.23;;;2.03;;
317;SDS011;146;53.448;10.228;2023-09-19T12:34:24;3.73;;;2.20;;
317;SDS011;146;53.448;10.228;2023-09-19T12:37:05;3.43;;;1.80;;
317;SDS011;146;53.448;10.228;2023-09-19T12:39:43;3.73;;;2.10;;
317;SDS011;146;53.448;10.228;2023-09-19T12:42:14;3.63;;;1.90;;
317;SDS011;146;53.448;10.228;2023-09-19T12:44:42;4.33;;;2.70;;
317;SDS011;146;53.448;10.228;2023-09-19T12:47:11;5.67;;;2.67;;
317;SDS011;146;53.448;10.228;2023-09-19T12:52:38;2.13;;;1.90;;
317;SDS011;146;53.448;10.228;2023-09-19T12:55:07;4.20;;;2.10;;
317;SDS011;146;53.448;10.228;2023-09-19T12:57:36;4.53;;;2.27;;
317;SDS011;146;53.448;10.228;2023-09-19T13:00:04;3.73;;;2.40;;
317;SDS011;146;53.448;10.228;2023-09-19T13:02:36;6.57;;;2.47;;
317;SDS011;146;53.448;10.228;2023-09-19T13:05:03;4.43;;;2.50;;
317;SDS011;146;53.448;10.228;2023-09-19T13:07:42;4.20;;;2.27;;
317;SDS011;146;53.448;10.228;2023-09-19T13:10:13;4.33;;;2.57;;
317;SDS011;146;53.448;10.228;2023-09-19T13:12:41;2.10;;;1.50;;
317;SDS011;146;53.448;10.228;2023-09-19T13:15:12;4.20;;;2.13;;
317;SDS011;146;53.448;10.228;2023-09-19T13:17:44;4.03;;;2.40;;
317;SDS011;146;53.448;10.228;2023-09-19T13:20:21;2.70;;;1.87;;
317;SDS011;146;53.448;10.228;2023-09-19T13:22:52;3.97;;;1.87;;
317;SDS011;146;53.448;10.228;2023-09-19T13:25:25;3.80;;;2.17;;
317;SDS011;146;53.448;10.228;2023-09-19T13:27:57;7.57;;;2.70;;
317;SDS011;146;53.448;10.228;2023-09-19T13:30:26;3.20;;;1.87;;
317;SDS011;146;53.448;10.228;2023-09-19T13:33:04;8.13;;;2.30;;
317;SDS011;146;53.448;10.228;2023-09-19T13:35:32;6.57;;;2.80;;
317;SDS011;146;53.448;10.228;2023-09-19T13:37:59;2.87;;;1.60;;
317;SDS011;146;53.448;10.228;2023-09-19T13:40:27;3.20;;;1.70;;
317;SDS011;146;53.448;10.228;2023-09-19T13:42:56;3.43;;;2.03;;
317;SDS011;146;53.448;10.228;2023-09-19T13:45:25;4.70;;;3.50;;
317;SDS011;146;53.448;10.228;2023-09-19T13:47:54;6.00;;;2.60;;
317;SDS011;146;53.448;10.228;2023-09-19T13:50:21;3.33;;;1.83;;
317;SDS011;146;53.448;10.228;2023-09-19T13:52:50;5.23;;;3.30;;
317;SDS011;146;53.448;10.228;2023-09-19T13:55:18;2.50;;;2.03;;
317;SDS011;146;53.448;10.228;2023-09-19T13:57:47;4.70;;;2.13;;
317;SDS011;146;53.448;10.228;2023-09-19T14:00:15;7.40;;;2.57;;
317;SDS011;146;53.448;10.228;2023-09-19T14:02:42;4.90;;;2.50;;
317;SDS011;146;53.448;10.228;2023-09-19T14:05:11;7.20;;;1.90;;
317;SDS011;146;53.448;10.228;2023-09-19T14:07:40;2.37;;;1.97;;
317;SDS011;146;53.448;10.228;2023-09-19T14:10:07;3.13;;;2.27;;
317;SDS011;146;53.448;10.228;2023-09-19T14:12:36;5.57;;;2.40;;
317;SDS011;146;53.448;10.228;2023-09-19T14:15:05;2.90;;;2.03;;
317;SDS011;146;53.448;10.228;2023-09-19T14:17:33;5.13;;;2.50;;
317;SDS011;146;53.448;10.228;2023-09-19T14:20:00;2.37;;;1.80;;
317;SDS011;146;53.448;10.228;2023-09-19T14:22:26;3.83;;;2.67;;
317;SDS011;146;53.448;10.228;2023-09-19T14:24:53;2.33;;;1.73;;
317;SDS011;146;53.448;10.228;2023-09-19T14:27:20;3.73;;;1.90;;
317;SDS011;146;53.448;10.228;2023-09-19T14:29:47;3.87;;;2.60;;
317;SDS011;146;53.448;10.228;2023-09-19T14:32:15;2.93;;;1.77;;
317;SDS011;146;53.448;10.228;2023-09-19T14:34:45;6.03;;;2.43;;
317;SDS011;146;53.448;10.228;2023-09-19T14:37:12;2.80;;;2.30;;
317;SDS011;146;53.448;10.228;2023-09-19T14:39:40;5.17;;;2.43;;
317;SDS011;146;53.448;10.228;2023-09-19T14:42:09;3.57;;;2.47;;
317;SDS011;146;53.448;10.228;2023-09-19T14:44:37;4.20;;;2.50;;
317;SDS011;146;53.448;10.228;2023-09-19T14:47:04;3.57;;;2.23;;
317;SDS011;146;53.448;10.228;2023-09-19T14:49:34;3.10;;;2.20;;
317;SDS011;146;53.448;10.228;2023-09-19T14:52:03;4.27;;;2.03;;
317;SDS011;146;53.448;10.228;2023-09-19T14:54:35;3.70;;;2.50;;
317;SDS011;146;53.448;10.228;2023-09-19T14:57:03;5.50;;;2.80;;
317;SDS011;146;53.448;10.228;2023-09-19T14:59:30;5.73;;;2.90;;
317;SDS011;146;53.448;10.228;2023-09-19T15:01:57;5.60;;;2.70;;
317;SDS011;146;53.448;10.228;2023-09-19T15:04:24;5.10;;;2.47;;
317;SDS011;146;53.448;10.228;2023-09-19T15:06:53;3.13;;;2.10;;
317;SDS011;146;53.448;10.228;2023-09-19T15:09:20;6.23;;;2.43;;
317;SDS011;146;53.448;10.228;2023-09-19T15:11:47;3.47;;;2.17;;
317;SDS011;146;53.448;10.228;2023-09-19T15:14:14;7.93;;;2.80;;
317;SDS011;146;53.448;10.228;2023-09-19T15:16:40;4.50;;;2.90;;
317;SDS011;146;53.448;10.228;2023-09-19T15:19:08;3.33;;;3.03;;
317;SDS011;146;53.448;10.228;2023-09-19T15:21:36;4.87;;;2.83;;
317;SDS011;146;53.448;10.228;2023-09-19T15:24:05;4.50;;;3.13;;
317;SDS011;146;53.448;10.228;2023-09-19T15:26:34;3.10;;;2.77;;
317;SDS011;146;53.448;10.228;2023-09-19T15:29:04;4.20;;;3.00;;
317;SDS011;146;53.448;10.228;2023-09-19T15:31:31;3.73;;;3.13;;
317;SDS011;146;53.448;10.228;2023-09-19T15:33:58;4.50;;;3.00;;
317;SDS011;146;53.448;10.228;2023-09-19T15:36:25;3.97;;;3.07;;
317;SDS011;146;53.448;10.228;2023-09-19T15:38:56;3.80;;;2.80;;
317;SDS011;146;53.448;10.228;2023-09-19T15:41:26;5.27;;;3.43;;
317;SDS011;146;53.448;10.228;2023-09-19T15:43:56;5.03;;;3.00;;
317;SDS011;146;53.448;10.228;2023-09-19T15:46:24;3.70;;;3.40;;
317;SDS011;146;53.448;10.228;2023-09-19T15:48:52;4.57;;;3.43;;
317;SDS011;146;53.448;10.228;2023-09-19T15:51:19;6.43;;;3.43;;
317;SDS011;146;53.448;10.228;2023-09-19T15:53:46;5.67;;;2.83;;
317;SDS011;146;53.448;10.228;2023-09-19T15:56:17;3.27;;;2.93;;
317;SDS011;146;53.448;10.228;2023-09-19T15:58:47;5.63;;;4.07;;
317;SDS011;146;53.448;10.228;2023-09-19T16:01:15;3.87;;;2.90;;
317;SDS011;146;53.448;10.228;2023-09-19T16:03:43;5.33;;;3.37;;
317;SDS011;146;53.448;10.228;2023-09-19T16:06:16;3.57;;;3.23;;
317;SDS011;146;53.448;10.228;2023-09-19T16:08:45;4.20;;;3.90;;